createdAt,value
2023-03-16T00:00:57.655Z,2.00
2023-03-16T00:03:25.274Z,2.70
2023-03-16T00:05:54.946Z,3.10
2023-03-16T00:08:24.637Z,2.03
2023-03-16T00:10:54.168Z,2.33
2023-03-16T00:13:24.698Z,2.20
2023-03-16T00:15:53.081Z,2.07
2023-03-16T00:18:21.531Z,2.03
2023-03-16T00:20:52.727Z,2.37
2023-03-16T00:23:27.612Z,2.90
2023-03-16T00:25:58.673Z,2.37
2023-03-16T00:28:28.483Z,2.30
2023-03-16T00:30:58.898Z,2.67
2023-03-16T00:33:26.863Z,2.53
2023-03-16T00:36:02.083Z,2.03
2023-03-16T00:38:32.175Z,2.40
2023-03-16T00:41:03.661Z,2.27
2023-03-16T00:43:31.565Z,2.70
2023-03-16T00:46:01.202Z,2.27
2023-03-16T00:48:28.898Z,2.27
2023-03-16T00:50:56.564Z,1.67
2023-03-16T00:53:24.295Z,2.13
2023-03-16T00:55:53.311Z,1.93
2023-03-16T00:58:23.288Z,2.07
2023-03-16T01:00:51.299Z,1.93
2023-03-16T01:03:19.031Z,2.53
2023-03-16T01:05:46.731Z,1.90
2023-03-16T01:08:14.411Z,1.90
2023-03-16T01:10:42.159Z,1.80
2023-03-16T01:13:09.813Z,2.30
2023-03-16T01:15:38.874Z,2.60
2023-03-16T01:18:07.820Z,2.27
2023-03-16T01:20:35.551Z,1.40
2023-03-16T01:23:03.480Z,2.50
2023-03-16T01:25:32.434Z,2.17
2023-03-16T01:28:00.250Z,2.33
2023-03-16T01:30:28.431Z,1.60
2023-03-16T01:32:58.385Z,1.97
2023-03-16T01:35:26.037Z,2.00
2023-03-16T01:37:53.828Z,2.20
2023-03-16T01:40:22.095Z,2.27
2023-03-16T01:43:00.438Z,1.97
2023-03-16T01:46:10.578Z,2.23
2023-03-16T01:48:44.726Z,1.87
2023-03-16T01:51:21.088Z,1.77
2023-03-16T01:53:52.995Z,1.80
2023-03-16T01:56:25.917Z,2.37
2023-03-16T01:58:58.986Z,2.10
2023-03-16T02:01:28.223Z,1.63
2023-03-16T02:04:06.056Z,2.13
2023-03-16T02:06:35.257Z,2.43
2023-03-16T02:09:03.918Z,2.13
2023-03-16T02:11:32.207Z,2.37
2023-03-16T02:14:07.338Z,1.67
2023-03-16T02:16:35.183Z,2.03
2023-03-16T02:19:07.629Z,2.20
2023-03-16T02:21:42.741Z,1.63
2023-03-16T02:24:11.068Z,1.57
2023-03-16T02:26:47.544Z,1.97
2023-03-16T02:29:25.564Z,2.30
2023-03-16T02:31:56.313Z,2.70
2023-03-16T02:34:24.721Z,2.50
2023-03-16T02:36:53.880Z,2.50
2023-03-16T02:39:21.494Z,1.77
2023-03-16T02:41:49.245Z,2.13
2023-03-16T02:44:24.066Z,3.03
2023-03-16T02:46:56.870Z,2.10
2023-03-16T02:49:28.073Z,1.87
2023-03-16T02:51:57.451Z,2.70
2023-03-16T02:54:25.358Z,2.53
2023-03-16T02:56:53.028Z,2.27
2023-03-16T02:59:20.699Z,2.93
2023-03-16T03:01:48.327Z,2.63
2023-03-16T03:04:17.553Z,2.70
2023-03-16T03:06:45.574Z,2.10
2023-03-16T03:09:13.275Z,2.60
2023-03-16T03:11:41.691Z,2.03
2023-03-16T03:14:09.318Z,2.43
2023-03-16T03:16:37.153Z,2.20
2023-03-16T03:19:04.920Z,2.67
2023-03-16T03:21:34.182Z,1.83
2023-03-16T03:24:02.585Z,2.43
2023-03-16T03:26:30.254Z,2.23
2023-03-16T03:28:57.886Z,2.63
2023-03-16T03:31:25.540Z,2.30
2023-03-16T03:33:53.753Z,3.17
2023-03-16T03:36:22.146Z,2.17
2023-03-16T03:38:51.147Z,2.30
2023-03-16T03:41:18.747Z,2.53
2023-03-16T03:43:46.600Z,2.73
2023-03-16T03:46:14.536Z,2.07
2023-03-16T03:48:42.286Z,2.23
2023-03-16T03:51:10.350Z,2.30
2023-03-16T03:53:38.069Z,3.40
2023-03-16T03:56:07.994Z,1.97
2023-03-16T03:58:35.652Z,2.97
2023-03-16T04:01:03.303Z,2.10
2023-03-16T04:03:31.180Z,2.50
2023-03-16T04:05:58.887Z,2.20
2023-03-16T04:08:26.513Z,2.20
2023-03-16T04:10:54.092Z,2.27
2023-03-16T04:13:23.059Z,1.77
2023-03-16T04:15:54.270Z,1.50
2023-03-16T04:18:22.044Z,1.90
2023-03-16T04:20:49.800Z,2.47
2023-03-16T04:23:17.483Z,2.30
2023-03-16T04:25:45.401Z,2.20
2023-03-16T04:28:13.264Z,1.83
2023-03-16T04:30:42.889Z,1.80
2023-03-16T04:33:10.667Z,1.90
2023-03-16T04:35:39.503Z,1.47
2023-03-16T04:38:08.017Z,2.10
2023-03-16T04:40:35.779Z,2.17
2023-03-16T04:43:03.421Z,1.90
2023-03-16T04:45:32.323Z,2.07
2023-03-16T04:48:01.381Z,2.13
2023-03-16T04:50:29.185Z,2.20
2023-03-16T04:52:57.248Z,3.73
2023-03-16T04:55:24.813Z,2.00
2023-03-16T04:57:52.961Z,1.70
2023-03-16T05:00:21.688Z,1.57
2023-03-16T05:02:50.393Z,1.40
2023-03-16T05:05:20.234Z,1.93
2023-03-16T05:07:48.436Z,1.80
2023-03-16T05:10:18.788Z,1.80
2023-03-16T05:12:46.649Z,1.53
2023-03-16T05:15:14.887Z,1.70
2023-03-16T05:17:43.006Z,1.63
2023-03-16T05:20:15.847Z,2.17
2023-03-16T05:22:48.118Z,1.90
2023-03-16T05:25:17.436Z,1.47
2023-03-16T05:27:46.667Z,1.50
2023-03-16T05:30:16.243Z,1.90
2023-03-16T05:32:44.640Z,1.80
2023-03-16T05:35:13.612Z,1.80
2023-03-16T05:37:41.564Z,1.63
2023-03-16T05:40:16.832Z,1.77
2023-03-16T05:42:45.897Z,1.93
2023-03-16T05:45:15.603Z,1.67
2023-03-16T05:47:43.867Z,1.67
2023-03-16T05:50:13.032Z,2.07
2023-03-16T05:52:41.662Z,1.70
2023-03-16T05:55:12.077Z,2.07
2023-03-16T05:57:39.788Z,2.03
2023-03-16T06:00:15.401Z,1.63
2023-03-16T06:02:43.621Z,2.17
2023-03-16T06:05:12.037Z,1.30
2023-03-16T06:07:39.843Z,1.80
2023-03-16T06:10:08.461Z,1.47
2023-03-16T06:12:37.390Z,1.63
2023-03-16T06:15:07.261Z,1.60
2023-03-16T06:17:35.072Z,1.63
2023-03-16T06:20:02.808Z,1.77
2023-03-16T06:22:31.038Z,1.90
2023-03-16T06:24:58.668Z,1.90
2023-03-16T06:27:26.519Z,2.03
2023-03-16T06:29:55.655Z,2.07
2023-03-16T06:32:23.504Z,1.80
2023-03-16T06:34:51.351Z,1.60
2023-03-16T06:37:19.779Z,1.70
2023-03-16T06:39:47.526Z,1.87
2023-03-16T06:42:15.514Z,2.43
2023-03-16T06:44:43.619Z,2.10
2023-03-16T06:47:12.853Z,2.33
2023-03-16T06:49:40.773Z,2.13
2023-03-16T06:52:10.475Z,3.63
2023-03-16T06:54:38.117Z,2.60
2023-03-16T06:57:05.908Z,2.23
2023-03-16T06:59:34.463Z,1.90
2023-03-16T07:02:02.393Z,1.73
2023-03-16T07:04:31.665Z,2.60
2023-03-16T07:06:59.593Z,1.70
2023-03-16T07:09:28.400Z,2.80
2023-03-16T07:11:56.010Z,2.00
2023-03-16T07:14:26.091Z,2.07
2023-03-16T07:16:53.859Z,2.20
2023-03-16T07:19:22.503Z,1.97
2023-03-16T07:21:51.567Z,2.00
2023-03-16T07:24:19.241Z,2.33
2023-03-16T07:26:47.286Z,1.70
2023-03-16T07:29:16.975Z,2.30
2023-03-16T07:31:44.737Z,2.87
2023-03-16T07:34:12.642Z,3.07
2023-03-16T07:36:40.337Z,2.97
2023-03-16T07:39:09.769Z,2.87
2023-03-16T07:41:37.441Z,2.87
2023-03-16T07:44:05.417Z,2.47
2023-03-16T07:46:35.816Z,2.40
2023-03-16T07:49:04.665Z,2.27
2023-03-16T07:51:32.395Z,2.73
2023-03-16T07:54:00.125Z,2.33
2023-03-16T07:56:39.039Z,1.87
2023-03-16T07:59:13.750Z,2.07
2023-03-16T08:01:41.440Z,2.83
2023-03-16T08:04:09.160Z,3.47
2023-03-16T08:06:36.837Z,1.80
2023-03-16T08:09:05.752Z,2.10
2023-03-16T08:11:36.182Z,1.67
2023-03-16T08:14:05.626Z,1.60
2023-03-16T08:16:33.466Z,1.90
2023-03-16T08:19:01.277Z,1.17
2023-03-16T08:21:30.217Z,1.87
2023-03-16T08:23:57.870Z,1.50
2023-03-16T08:26:27.281Z,1.20
2023-03-16T08:28:56.293Z,1.30
2023-03-16T08:31:25.274Z,1.50
2023-03-16T08:33:54.050Z,1.43
2023-03-16T08:36:22.144Z,1.20
2023-03-16T08:39:06.164Z,1.20
2023-03-16T08:41:35.203Z,0.87
2023-03-16T08:44:04.562Z,0.87
2023-03-16T08:46:32.357Z,2.20
2023-03-16T08:48:59.963Z,0.90
2023-03-16T08:51:29.416Z,1.43
2023-03-16T08:53:57.325Z,1.43
2023-03-16T08:56:25.024Z,1.63
2023-03-16T08:58:53.050Z,1.30
2023-03-16T09:01:22.212Z,1.20
2023-03-16T09:03:51.288Z,1.63
2023-03-16T09:06:19.920Z,1.17
2023-03-16T09:08:47.867Z,0.80
2023-03-16T09:11:18.675Z,2.00
2023-03-16T09:13:47.244Z,1.10
2023-03-16T09:16:16.237Z,0.93
2023-03-16T09:18:45.523Z,1.47
2023-03-16T09:21:14.046Z,0.80
2023-03-16T09:23:42.964Z,1.30
2023-03-16T09:26:12.718Z,2.43
2023-03-16T09:28:42.451Z,2.30
2023-03-16T09:31:11.611Z,2.23
2023-03-16T09:33:39.936Z,0.90
2023-03-16T09:36:11.422Z,1.03
2023-03-16T09:38:39.447Z,1.07
2023-03-16T09:41:10.605Z,1.00
2023-03-16T09:43:56.684Z,0.93
2023-03-16T09:46:29.004Z,1.00
2023-03-16T09:48:58.005Z,0.97
2023-03-16T09:51:39.563Z,0.70
2023-03-16T09:54:18.174Z,0.87
2023-03-16T09:56:46.902Z,0.77
2023-03-16T09:59:17.374Z,0.90
2023-03-16T10:01:59.823Z,0.50
2023-03-16T10:04:46.262Z,0.77
2023-03-16T10:07:23.977Z,2.73
2023-03-16T10:09:57.964Z,4.27
2023-03-16T10:12:31.935Z,1.20
2023-03-16T10:15:06.723Z,0.90
2023-03-16T10:17:41.000Z,0.90
2023-03-16T10:20:17.410Z,1.23
2023-03-16T10:22:48.287Z,0.73
2023-03-16T10:25:23.252Z,0.40
2023-03-16T10:27:51.638Z,1.53
2023-03-16T10:30:28.220Z,0.90
2023-03-16T10:32:57.548Z,0.83
2023-03-16T10:35:41.580Z,1.07
2023-03-16T10:38:28.004Z,1.00
2023-03-16T10:40:57.817Z,1.40
2023-03-16T10:43:25.871Z,1.25
2023-03-16T10:46:02.082Z,0.97
2023-03-16T10:48:34.163Z,1.20
2023-03-16T10:51:06.417Z,0.70
2023-03-16T10:53:38.362Z,0.90
2023-03-16T10:56:13.390Z,2.30
2023-03-16T10:58:43.646Z,1.70
2023-03-16T11:01:13.605Z,1.67
2023-03-16T11:03:42.420Z,0.95
2023-03-16T11:06:22.793Z,1.10
2023-03-16T11:08:53.980Z,1.05
2023-03-16T11:11:27.983Z,1.40
2023-03-16T11:14:00.092Z,0.85
2023-03-16T11:16:34.345Z,0.60
2023-03-16T11:19:11.130Z,0.70
2023-03-16T11:21:46.453Z,1.10
2023-03-16T11:24:22.998Z,1.80
2023-03-16T11:26:55.554Z,1.00
2023-03-16T11:29:28.372Z,0.82
2023-03-16T11:31:59.777Z,1.27
2023-03-16T11:34:30.540Z,1.17
2023-03-16T11:37:06.283Z,0.80
2023-03-16T11:39:45.425Z,1.20
2023-03-16T11:42:28.411Z,1.00
2023-03-16T11:45:01.630Z,0.63
2023-03-16T11:48:04.892Z,1.00
2023-03-16T11:50:38.400Z,0.75
2023-03-16T11:53:15.913Z,1.10
2023-03-16T11:55:55.608Z,1.17
2023-03-16T11:58:37.444Z,1.13
2023-03-16T12:01:13.206Z,0.90
2023-03-16T12:03:58.283Z,0.80
2023-03-16T12:06:39.278Z,0.80
2023-03-16T12:09:37.657Z,0.63
2023-03-16T12:12:23.293Z,0.98
2023-03-16T12:15:00.022Z,1.10
2023-03-16T12:17:32.159Z,0.70
2023-03-16T12:20:05.885Z,0.70
2023-03-16T12:22:37.280Z,1.15
2023-03-16T12:25:14.712Z,1.15
2023-03-16T12:27:46.280Z,1.20
2023-03-16T12:30:25.749Z,0.98
2023-03-16T12:33:00.679Z,1.00
2023-03-16T12:35:37.848Z,1.17
2023-03-16T12:38:37.678Z,1.70
2023-03-16T12:41:17.930Z,1.17
2023-03-16T12:43:57.278Z,0.77
2023-03-16T12:46:32.487Z,0.88
2023-03-16T12:49:02.969Z,0.93
2023-03-16T12:51:35.322Z,0.95
2023-03-16T12:54:04.038Z,1.40
2023-03-16T12:56:33.433Z,0.85
2023-03-16T12:59:05.633Z,1.48
2023-03-16T13:01:39.248Z,1.02
2023-03-16T13:04:13.462Z,0.95
2023-03-16T13:06:45.280Z,1.27
2023-03-16T13:09:18.431Z,1.30
2023-03-16T13:11:50.897Z,1.55
2023-03-16T13:14:38.127Z,1.00
2023-03-16T13:17:22.854Z,1.20
2023-03-16T13:20:04.022Z,1.23
2023-03-16T13:22:33.247Z,1.30
2023-03-16T13:25:15.489Z,0.55
2023-03-16T13:27:47.111Z,0.80
2023-03-16T13:30:21.051Z,0.73
2023-03-16T13:32:49.674Z,0.77
2023-03-16T13:35:18.937Z,1.30
2023-03-16T13:37:48.146Z,1.20
2023-03-16T13:40:20.101Z,0.93
2023-03-16T13:42:52.709Z,1.13
2023-03-16T13:45:24.128Z,1.10
2023-03-16T13:47:53.249Z,0.50
2023-03-16T13:50:23.554Z,1.00
2023-03-16T13:52:58.639Z,1.25
2023-03-16T13:55:32.229Z,1.38
2023-03-16T13:58:01.687Z,0.70
2023-03-16T14:00:34.575Z,0.70
2023-03-16T14:03:16.223Z,1.25
2023-03-16T14:05:46.276Z,1.00
2023-03-16T14:08:17.438Z,0.77
2023-03-16T14:10:46.757Z,0.73
2023-03-16T14:13:27.518Z,0.75
2023-03-16T14:15:59.123Z,1.33
2023-03-16T14:18:33.616Z,1.20
2023-03-16T14:21:06.436Z,0.73
2023-03-16T14:23:39.023Z,0.98
2023-03-16T14:26:12.550Z,0.93
2023-03-16T14:28:41.517Z,1.25
2023-03-16T14:31:13.841Z,0.77
2023-03-16T14:33:45.953Z,0.90
2023-03-16T14:36:15.382Z,0.80
2023-03-16T14:38:45.293Z,0.75
2023-03-16T14:41:21.579Z,1.00
2023-03-16T14:43:51.656Z,1.02
2023-03-16T14:46:28.716Z,1.40
2023-03-16T14:49:05.182Z,0.57
2023-03-16T14:51:33.763Z,0.30
2023-03-16T14:54:01.604Z,0.57
2023-03-16T14:56:34.850Z,1.10
2023-03-16T14:59:02.726Z,0.80
2023-03-16T15:01:32.316Z,0.75
2023-03-16T15:03:59.977Z,1.20
2023-03-16T15:06:27.666Z,1.15
2023-03-16T15:08:55.421Z,0.95
2023-03-16T15:11:24.533Z,1.20
2023-03-16T15:14:04.206Z,1.30
2023-03-16T15:16:34.357Z,0.43
2023-03-16T15:19:02.094Z,1.08
2023-03-16T15:21:32.817Z,1.67
2023-03-16T15:24:00.930Z,0.75
2023-03-16T15:26:30.574Z,0.57
2023-03-16T15:28:58.532Z,1.02
2023-03-16T15:31:26.906Z,1.45
2023-03-16T15:33:56.071Z,0.80
2023-03-16T15:36:26.632Z,2.00
2023-03-16T15:38:55.536Z,0.82
2023-03-16T15:41:24.937Z,1.55
2023-03-16T15:44:00.496Z,1.02
2023-03-16T15:46:28.868Z,0.70
2023-03-16T15:48:57.834Z,0.88
2023-03-16T15:51:29.869Z,0.98
2023-03-16T15:54:00.055Z,1.27
2023-03-16T15:56:30.893Z,1.10
2023-03-16T15:59:02.028Z,1.05
2023-03-16T16:01:32.010Z,0.90
2023-03-16T16:04:01.190Z,1.88
2023-03-16T16:06:30.333Z,0.80
2023-03-16T16:08:58.036Z,1.27
2023-03-16T16:11:27.982Z,0.90
2023-03-16T16:13:57.447Z,1.52
2023-03-16T16:16:29.151Z,1.10
2023-03-16T16:18:57.968Z,1.00
2023-03-16T16:21:30.855Z,0.77
2023-03-16T16:23:59.186Z,0.60
2023-03-16T16:26:45.491Z,0.88
2023-03-16T16:29:16.769Z,1.10
2023-03-16T16:31:45.787Z,0.98
2023-03-16T16:34:14.524Z,1.08
2023-03-16T16:36:44.740Z,1.33
2023-03-16T16:39:12.713Z,0.93
2023-03-16T16:41:41.763Z,1.20
2023-03-16T16:44:18.012Z,1.00
2023-03-16T16:46:45.887Z,1.33
2023-03-16T16:49:17.350Z,1.00
2023-03-16T16:51:46.813Z,1.15
2023-03-16T16:54:17.530Z,0.88
2023-03-16T16:56:46.385Z,0.60
2023-03-16T16:59:18.070Z,0.80
2023-03-16T17:01:47.246Z,0.77
2023-03-16T17:04:17.465Z,0.82
2023-03-16T17:06:48.763Z,1.88
2023-03-16T17:09:16.361Z,0.80
2023-03-16T17:11:46.314Z,0.90
2023-03-16T17:14:17.942Z,0.68
2023-03-16T17:16:46.995Z,1.20
2023-03-16T17:19:19.641Z,0.80
2023-03-16T17:21:49.036Z,0.95
2023-03-16T17:24:17.335Z,1.30
2023-03-16T17:26:47.634Z,0.60
2023-03-16T17:29:21.004Z,0.68
2023-03-16T17:31:50.161Z,0.85
2023-03-16T17:34:20.370Z,0.95
2023-03-16T17:36:51.120Z,0.80
2023-03-16T17:39:23.762Z,0.47
2023-03-16T17:41:55.617Z,0.80
2023-03-16T17:44:23.513Z,0.80
2023-03-16T17:46:51.265Z,1.30
2023-03-16T17:49:19.953Z,0.90
2023-03-16T17:51:49.015Z,0.90
2023-03-16T17:54:16.822Z,0.93
2023-03-16T17:56:44.978Z,2.00
2023-03-16T17:59:17.404Z,1.00
2023-03-16T18:01:46.954Z,0.85
2023-03-16T18:04:17.894Z,1.10
2023-03-16T18:06:47.515Z,1.10
2023-03-16T18:09:17.115Z,1.60
2023-03-16T18:11:47.931Z,1.70
2023-03-16T18:14:35.700Z,1.33
2023-03-16T18:17:17.981Z,0.77
2023-03-16T18:19:46.885Z,0.47
2023-03-16T18:22:19.279Z,0.73
2023-03-16T18:24:49.638Z,0.70
2023-03-16T18:27:17.971Z,1.23
2023-03-16T18:29:46.898Z,1.08
2023-03-16T18:32:19.049Z,1.13
2023-03-16T18:34:47.372Z,1.08
2023-03-16T18:37:20.972Z,0.80
2023-03-16T18:39:51.716Z,0.70
2023-03-16T18:42:21.748Z,0.77
2023-03-16T18:44:49.728Z,1.23
2023-03-16T18:47:20.960Z,1.30
2023-03-16T18:49:53.664Z,1.10
2023-03-16T18:52:24.457Z,1.08
2023-03-16T18:54:55.533Z,1.55
2023-03-16T18:57:25.463Z,1.23
2023-03-16T18:59:53.990Z,1.00
2023-03-16T19:02:37.748Z,1.45
2023-03-16T19:05:09.891Z,0.95
2023-03-16T19:07:39.802Z,1.70
2023-03-16T19:10:21.406Z,0.98
2023-03-16T19:12:49.399Z,1.60
2023-03-16T19:15:22.895Z,1.30
2023-03-16T19:17:51.392Z,1.00
2023-03-16T19:20:21.350Z,1.20
2023-03-16T19:22:51.925Z,1.35
2023-03-16T19:25:27.230Z,1.30
2023-03-16T19:27:55.684Z,1.33
2023-03-16T19:30:29.149Z,1.38
2023-03-16T19:32:58.900Z,1.05
2023-03-16T19:35:48.412Z,1.38
2023-03-16T19:38:18.140Z,1.30
2023-03-16T19:40:52.856Z,1.05
2023-03-16T19:43:22.213Z,1.33
2023-03-16T19:45:50.814Z,1.40
2023-03-16T19:48:22.523Z,1.52
2023-03-16T19:50:52.820Z,1.42
2023-03-16T19:53:24.363Z,0.85
2023-03-16T19:55:54.529Z,1.02
2023-03-16T19:58:30.203Z,1.83
2023-03-16T20:00:58.799Z,1.55
2023-03-16T20:03:27.468Z,1.55
2023-03-16T20:05:55.658Z,0.80
2023-03-16T20:08:25.683Z,1.10
2023-03-16T20:10:57.486Z,1.23
2023-03-16T20:13:26.213Z,2.25
2023-03-16T20:15:54.255Z,1.45
2023-03-16T20:18:24.708Z,1.92
2023-03-16T20:20:53.045Z,2.83
2023-03-16T20:23:24.448Z,5.07
2023-03-16T20:25:54.389Z,5.75
2023-03-16T20:28:26.019Z,2.05
2023-03-16T20:30:54.959Z,1.90
2023-03-16T20:33:24.256Z,1.92
2023-03-16T20:35:54.730Z,1.40
2023-03-16T20:38:23.810Z,1.35
2023-03-16T20:40:56.582Z,1.45
2023-03-16T20:43:29.366Z,1.52
2023-03-16T20:46:00.032Z,1.08
2023-03-16T20:48:29.186Z,1.50
2023-03-16T20:50:59.902Z,1.77
2023-03-16T20:53:30.785Z,1.60
2023-03-16T20:55:59.010Z,1.60
2023-03-16T20:58:28.834Z,1.42
2023-03-16T21:00:58.212Z,1.60
2023-03-16T21:03:28.446Z,1.75
2023-03-16T21:06:00.013Z,1.67
2023-03-16T21:08:28.497Z,1.48
2023-03-16T21:10:59.484Z,1.50
2023-03-16T21:13:31.288Z,1.52
2023-03-16T21:16:01.396Z,1.40
2023-03-16T21:18:31.330Z,1.50
2023-03-16T21:20:59.042Z,0.95
2023-03-16T21:23:26.789Z,1.65
2023-03-16T21:25:56.775Z,1.45
2023-03-16T21:28:26.321Z,1.38
2023-03-16T21:30:57.344Z,1.25
2023-03-16T21:33:30.052Z,1.92
2023-03-16T21:35:58.515Z,1.23
2023-03-16T21:38:29.115Z,1.20
2023-03-16T21:40:57.151Z,0.98
2023-03-16T21:43:25.287Z,1.60
2023-03-16T21:45:54.000Z,1.08
2023-03-16T21:48:26.605Z,1.15
2023-03-16T21:50:54.852Z,1.30
2023-03-16T21:53:24.274Z,0.75
2023-03-16T21:55:53.322Z,2.53
2023-03-16T21:58:22.169Z,1.00
2023-03-16T22:00:51.041Z,1.30
2023-03-16T22:03:25.904Z,1.60
2023-03-16T22:05:54.175Z,1.30
2023-03-16T22:08:24.238Z,0.93
2023-03-16T22:10:52.984Z,1.92
2023-03-16T22:13:22.273Z,1.20
2023-03-16T22:15:52.749Z,1.08
2023-03-16T22:18:31.705Z,1.63
2023-03-16T22:21:00.800Z,0.90
2023-03-16T22:23:31.929Z,0.75
2023-03-16T22:25:59.703Z,1.92
2023-03-16T22:28:27.985Z,1.53
2023-03-16T22:30:58.413Z,1.50
2023-03-16T22:33:39.937Z,1.50
2023-03-16T22:36:11.735Z,1.48
2023-03-16T22:38:42.243Z,2.20
2023-03-16T22:41:14.679Z,1.48
2023-03-16T22:43:45.732Z,1.13
2023-03-16T22:46:20.609Z,1.67
2023-03-16T22:48:50.081Z,1.25
2023-03-16T22:51:24.074Z,1.77
2023-03-16T22:53:54.016Z,1.90
2023-03-16T22:56:21.712Z,1.20
2023-03-16T22:58:52.256Z,2.23
2023-03-16T23:01:22.993Z,1.27
2023-03-16T23:03:56.456Z,1.73
2023-03-16T23:06:26.500Z,1.17
2023-03-16T23:08:55.285Z,1.60
2023-03-16T23:11:25.050Z,1.75
2023-03-16T23:13:54.089Z,1.80
2023-03-16T23:16:23.871Z,1.52
2023-03-16T23:18:53.225Z,1.15
2023-03-16T23:21:23.552Z,1.95
2023-03-16T23:24:03.229Z,1.10
2023-03-16T23:26:32.753Z,1.85
2023-03-16T23:29:00.633Z,2.28
2023-03-16T23:31:28.549Z,1.37
2023-03-16T23:33:57.501Z,2.17
2023-03-16T23:36:27.116Z,1.83
2023-03-16T23:38:54.800Z,2.05
2023-03-16T23:41:25.215Z,1.88
2023-03-16T23:43:54.808Z,1.08
2023-03-16T23:46:24.625Z,2.30
2023-03-16T23:48:55.152Z,1.15
2023-03-16T23:51:27.202Z,1.87
2023-03-16T23:53:55.013Z,1.70
2023-03-16T23:56:23.056Z,1.80
2023-03-16T23:58:50.920Z,1.85
